sensor_id;sensor_type;location;lat;lon;timestamp;pressure;altitude;pressure_sealevel;temperature;humidity
15794;BME280;7999;51.208;4.244;2022-08-21T00:00:13;101762.94;;;15.18;77.58
15794;BME280;7999;51.208;4.244;2022-08-21T00:02:44;101762.06;;;15.17;77.33
15794;BME280;7999;51.208;4.244;2022-08-21T00:05:11;101764.69;;;15.15;77.92
15794;BME280;7999;51.208;4.244;2022-08-21T00:07:40;101764.72;;;15.09;77.79
15794;BME280;7999;51.208;4.244;2022-08-21T00:10:07;101758.59;;;15.12;77.68
15794;BME280;7999;51.208;4.244;2022-08-21T00:12:34;101755.16;;;15.01;77.79
15794;BME280;7999;51.208;4.244;2022-08-21T00:15:01;101750.78;;;15.00;77.87
15794;BME280;7999;51.208;4.244;2022-08-21T00:17:29;101745.56;;;14.98;77.85
15794;BME280;7999;51.208;4.244;2022-08-21T00:19:56;101745.56;;;14.95;77.55
15794;BME280;7999;51.208;4.244;2022-08-21T00:22:23;101744.75;;;14.78;78.07
15794;BME280;7999;51.208;4.244;2022-08-21T00:24:51;101743.91;;;14.71;78.24
15794;BME280;7999;51.208;4.244;2022-08-21T00:27:18;101743.91;;;14.70;78.84
15794;BME280;7999;51.208;4.244;2022-08-21T00:29:45;101737.84;;;14.59;79.26
15794;BME280;7999;51.208;4.244;2022-08-21T00:32:12;101736.09;;;14.59;79.65
15794;BME280;7999;51.208;4.244;2022-08-21T00:34:39;101726.50;;;14.57;79.63
15794;BME280;7999;51.208;4.244;2022-08-21T00:37:06;101727.38;;;14.56;79.61
15794;BME280;7999;51.208;4.244;2022-08-21T00:39:33;101733.47;;;14.51;80.02
15794;BME280;7999;51.208;4.244;2022-08-21T00:42:01;101731.75;;;14.50;79.60
15794;BME280;7999;51.208;4.244;2022-08-21T00:44:29;101730.00;;;14.49;79.94
15794;BME280;7999;51.208;4.244;2022-08-21T00:46:57;101730.03;;;14.52;79.24
15794;BME280;7999;51.208;4.244;2022-08-21T00:49:23;101738.72;;;14.48;80.25
15794;BME280;7999;51.208;4.244;2022-08-21T00:51:51;101726.50;;;14.41;80.00
15794;BME280;7999;51.208;4.244;2022-08-21T00:54:20;101723.00;;;14.39;80.32
15794;BME280;7999;51.208;4.244;2022-08-21T00:56:50;101724.75;;;14.40;80.20
15794;BME280;7999;51.208;4.244;2022-08-21T00:59:20;101724.75;;;14.37;79.82
15794;BME280;7999;51.208;4.244;2022-08-21T01:01:48;101730.91;;;14.27;80.52
15794;BME280;7999;51.208;4.244;2022-08-21T01:04:15;101735.25;;;14.28;80.78
15794;BME280;7999;51.208;4.244;2022-08-21T01:06:42;101733.50;;;14.24;79.98
15794;BME280;7999;51.208;4.244;2022-08-21T01:09:08;101736.09;;;14.22;80.45
15794;BME280;7999;51.208;4.244;2022-08-21T01:11:35;101727.38;;;14.22;80.57
15794;BME280;7999;51.208;4.244;2022-08-21T01:14:03;101723.06;;;14.13;81.24
15794;BME280;7999;51.208;4.244;2022-08-21T01:16:31;101729.16;;;14.17;81.20
15794;BME280;7999;51.208;4.244;2022-08-21T01:18:59;101734.38;;;14.29;81.86
15794;BME280;7999;51.208;4.244;2022-08-21T01:21:27;101731.75;;;14.17;81.83
15794;BME280;7999;51.208;4.244;2022-08-21T01:23:55;101729.16;;;14.25;81.64
15794;BME280;7999;51.208;4.244;2022-08-21T01:26:23;101732.63;;;14.30;81.27
15794;BME280;7999;51.208;4.244;2022-08-21T01:28:54;101733.50;;;14.18;81.54
15794;BME280;7999;51.208;4.244;2022-08-21T01:31:24;101735.25;;;14.19;81.21
15794;BME280;7999;51.208;4.244;2022-08-21T01:33:52;101733.50;;;14.13;81.15
15794;BME280;7999;51.208;4.244;2022-08-21T01:36:19;101737.00;;;14.09;80.89
15794;BME280;7999;51.208;4.244;2022-08-21T01:38:47;101738.75;;;14.09;81.21
15794;BME280;7999;51.208;4.244;2022-08-21T01:41:15;101743.13;;;14.01;82.31
15794;BME280;7999;51.208;4.244;2022-08-21T01:43:43;101741.34;;;13.97;83.01
15794;BME280;7999;51.208;4.244;2022-08-21T01:46:11;101736.13;;;13.90;83.04
15794;BME280;7999;51.208;4.244;2022-08-21T01:48:38;101734.38;;;13.83;83.75
15794;BME280;7999;51.208;4.244;2022-08-21T01:51:05;101737.88;;;13.84;83.48
15794;BME280;7999;51.208;4.244;2022-08-21T01:53:33;101730.91;;;13.80;84.04
15794;BME280;7999;51.208;4.244;2022-08-21T01:56:03;101733.53;;;13.78;84.01
15794;BME280;7999;51.208;4.244;2022-08-21T01:58:30;101736.13;;;13.77;84.79
15794;BME280;7999;51.208;4.244;2022-08-21T02:00:59;101733.50;;;13.84;83.94
15794;BME280;7999;51.208;4.244;2022-08-21T02:03:26;101731.78;;;13.77;84.09
15794;BME280;7999;51.208;4.244;2022-08-21T02:05:54;101723.06;;;13.84;84.28
15794;BME280;7999;51.208;4.244;2022-08-21T02:08:21;101719.56;;;13.85;83.87
15794;BME280;7999;51.208;4.244;2022-08-21T02:10:48;101719.56;;;13.85;83.49
15794;BME280;7999;51.208;4.244;2022-08-21T02:13:17;101716.09;;;13.77;84.63
15794;BME280;7999;51.208;4.244;2022-08-21T02:15:44;101716.09;;;13.82;84.46
15794;BME280;7999;51.208;4.244;2022-08-21T02:18:11;101710.88;;;13.74;84.49
15794;BME280;7999;51.208;4.244;2022-08-21T02:20:39;101703.91;;;13.76;84.76
15794;BME280;7999;51.208;4.244;2022-08-21T02:23:07;101710.88;;;13.77;84.48
15794;BME280;7999;51.208;4.244;2022-08-21T02:25:36;101711.72;;;13.87;83.95
15794;BME280;7999;51.208;4.244;2022-08-21T02:28:04;101703.03;;;13.76;84.76
15794;BME280;7999;51.208;4.244;2022-08-21T02:30:34;101714.34;;;13.88;83.98
15794;BME280;7999;51.208;4.244;2022-08-21T02:33:03;101709.13;;;13.76;84.36
15794;BME280;7999;51.208;4.244;2022-08-21T02:35:31;101709.13;;;13.79;84.39
15794;BME280;7999;51.208;4.244;2022-08-21T02:37:59;101710.84;;;13.65;84.89
15794;BME280;7999;51.208;4.244;2022-08-21T02:40:28;101709.13;;;13.73;84.69
15794;BME280;7999;51.208;4.244;2022-08-21T02:42:56;101714.31;;;13.64;85.47
15794;BME280;7999;51.208;4.244;2022-08-21T02:45:23;101723.06;;;13.72;85.48
15794;BME280;7999;51.208;4.244;2022-08-21T02:47:52;101719.59;;;13.70;85.32
15794;BME280;7999;51.208;4.244;2022-08-21T02:50:21;101716.97;;;13.72;85.24
15794;BME280;7999;51.208;4.244;2022-08-21T02:52:48;101715.22;;;13.78;84.90
15794;BME280;7999;51.208;4.244;2022-08-21T02:55:16;101715.22;;;13.75;84.56
15794;BME280;7999;51.208;4.244;2022-08-21T02:57:43;101712.59;;;13.78;84.11
15794;BME280;7999;51.208;4.244;2022-08-21T03:00:11;101711.75;;;13.72;84.86
15794;BME280;7999;51.208;4.244;2022-08-21T03:02:39;101716.94;;;13.66;85.15
15794;BME280;7999;51.208;4.244;2022-08-21T03:05:08;101716.06;;;13.68;85.30
15794;BME280;7999;51.208;4.244;2022-08-21T03:07:35;101708.22;;;13.68;85.04
15794;BME280;7999;51.208;4.244;2022-08-21T03:10:02;101703.00;;;13.64;85.42
15794;BME280;7999;51.208;4.244;2022-08-21T03:12:29;101709.09;;;13.67;85.14
15794;BME280;7999;51.208;4.244;2022-08-21T03:14:56;101704.75;;;13.61;85.39
15794;BME280;7999;51.208;4.244;2022-08-21T03:17:24;101698.66;;;13.64;85.68
15794;BME280;7999;51.208;4.244;2022-08-21T03:19:52;101698.66;;;13.76;85.51
15794;BME280;7999;51.208;4.244;2022-08-21T03:22:20;101691.69;;;13.54;86.53
15794;BME280;7999;51.208;4.244;2022-08-21T03:24:48;101694.28;;;13.55;86.69
15794;BME280;7999;51.208;4.244;2022-08-21T03:27:15;101683.84;;;13.58;86.00
15794;BME280;7999;51.208;4.244;2022-08-21T03:29:42;101686.47;;;13.63;86.05
15794;BME280;7999;51.208;4.244;2022-08-21T03:32:09;101685.59;;;13.64;86.31
15794;BME280;7999;51.208;4.244;2022-08-21T03:34:36;101682.13;;;13.70;85.70
15794;BME280;7999;51.208;4.244;2022-08-21T03:37:04;101677.75;;;13.66;85.87
15794;BME280;7999;51.208;4.244;2022-08-21T03:39:33;101671.66;;;13.64;86.21
15794;BME280;7999;51.208;4.244;2022-08-21T03:42:01;101670.78;;;13.60;86.45
15794;BME280;7999;51.208;4.244;2022-08-21T03:44:27;101674.25;;;13.59;86.62
15794;BME280;7999;51.208;4.244;2022-08-21T03:46:55;101679.50;;;13.56;86.79
15794;BME280;7999;51.208;4.244;2022-08-21T03:49:23;101675.13;;;13.63;86.08
15794;BME280;7999;51.208;4.244;2022-08-21T03:51:50;101676.88;;;13.54;87.00
15794;BME280;7999;51.208;4.244;2022-08-21T03:54:17;101682.09;;;13.62;86.36
15794;BME280;7999;51.208;4.244;2022-08-21T03:56:45;101676.00;;;13.48;87.37
15794;BME280;7999;51.208;4.244;2022-08-21T03:59:12;101678.63;;;13.48;86.44
15794;BME280;7999;51.208;4.244;2022-08-21T04:01:39;101679.50;;;13.44;87.22
15794;BME280;7999;51.208;4.244;2022-08-21T04:04:06;101686.47;;;13.48;87.25
15794;BME280;7999;51.208;4.244;2022-08-21T04:06:33;101687.31;;;13.42;87.95
15794;BME280;7999;51.208;4.244;2022-08-21T04:09:00;101682.97;;;13.44;87.92
15794;BME280;7999;51.208;4.244;2022-08-21T04:11:27;101684.72;;;13.44;87.76
15794;BME280;7999;51.208;4.244;2022-08-21T04:13:55;101686.41;;;13.31;88.34
15794;BME280;7999;51.208;4.244;2022-08-21T04:16:22;101680.31;;;13.38;88.25
15794;BME280;7999;51.208;4.244;2022-08-21T04:18:49;101683.84;;;13.45;88.11
15794;BME280;7999;51.208;4.244;2022-08-21T04:21:16;101691.69;;;13.48;87.95
15794;BME280;7999;51.208;4.244;2022-08-21T04:23:43;101686.41;;;13.42;88.68
15794;BME280;7999;51.208;4.244;2022-08-21T04:26:09;101691.66;;;13.42;88.68
15794;BME280;7999;51.208;4.244;2022-08-21T04:28:36;101686.41;;;13.42;88.19
15794;BME280;7999;51.208;4.244;2022-08-21T04:31:04;101695.16;;;13.44;88.29
15794;BME280;7999;51.208;4.244;2022-08-21T04:33:31;101694.28;;;13.49;88.50
15794;BME280;7999;51.208;4.244;2022-08-21T04:35:58;101703.00;;;13.42;88.60
15794;BME280;7999;51.208;4.244;2022-08-21T04:38:25;101704.75;;;13.49;88.52
15794;BME280;7999;51.208;4.244;2022-08-21T04:40:52;101708.22;;;13.50;89.05
15794;BME280;7999;51.208;4.244;2022-08-21T04:43:19;101704.72;;;13.42;89.56
15794;BME280;7999;51.208;4.244;2022-08-21T04:45:47;101707.31;;;13.42;88.72
15794;BME280;7999;51.208;4.244;2022-08-21T04:48:16;101714.31;;;13.49;89.24
15794;BME280;7999;51.208;4.244;2022-08-21T04:50:44;101703.88;;;13.52;89.23
15794;BME280;7999;51.208;4.244;2022-08-21T04:53:14;101703.88;;;13.55;88.93
15794;BME280;7999;51.208;4.244;2022-08-21T04:55:42;101712.59;;;13.54;89.52
15794;BME280;7999;51.208;4.244;2022-08-21T04:58:09;101709.09;;;13.61;89.57
15794;BME280;7999;51.208;4.244;2022-08-21T05:00:37;101709.97;;;13.65;89.67
15794;BME280;7999;51.208;4.244;2022-08-21T05:03:04;101713.44;;;13.68;89.49
15794;BME280;7999;51.208;4.244;2022-08-21T05:05:34;101720.41;;;13.69;89.73
15794;BME280;7999;51.208;4.244;2022-08-21T05:08:01;101715.22;;;13.81;89.23
15794;BME280;7999;51.208;4.244;2022-08-21T05:10:28;101721.31;;;13.74;89.40
15794;BME280;7999;51.208;4.244;2022-08-21T05:12:56;101719.56;;;13.85;89.06
15794;BME280;7999;51.208;4.244;2022-08-21T05:15:25;101721.31;;;13.86;89.33
15794;BME280;7999;51.208;4.244;2022-08-21T05:17:52;101714.34;;;13.88;89.29
15794;BME280;7999;51.208;4.244;2022-08-21T05:20:20;101714.34;;;13.95;89.09
15794;BME280;7999;51.208;4.244;2022-08-21T05:22:48;101710.84;;;13.96;88.97
15794;BME280;7999;51.208;4.244;2022-08-21T05:25:17;101712.59;;;14.06;88.51
15794;BME280;7999;51.208;4.244;2022-08-21T05:27:45;101724.81;;;14.10;88.46
15794;BME280;7999;51.208;4.244;2022-08-21T05:30:12;101728.28;;;14.09;88.50
15794;BME280;7999;51.208;4.244;2022-08-21T05:32:39;101727.44;;;14.02;89.08
15794;BME280;7999;51.208;4.244;2022-08-21T05:35:06;101722.19;;;14.10;88.65
15794;BME280;7999;51.208;4.244;2022-08-21T05:37:33;101719.56;;;14.20;88.05
15794;BME280;7999;51.208;4.244;2022-08-21T05:40:03;101726.53;;;14.20;88.64
15794;BME280;7999;51.208;4.244;2022-08-21T05:42:30;101729.13;;;14.23;88.27
15794;BME280;7999;51.208;4.244;2022-08-21T05:44:57;101724.78;;;14.34;88.15
15794;BME280;7999;51.208;4.244;2022-08-21T05:47:23;101722.16;;;14.48;87.31
15794;BME280;7999;51.208;4.244;2022-08-21T05:49:50;101723.00;;;14.64;87.24
15794;BME280;7999;51.208;4.244;2022-08-21T05:52:18;101723.81;;;14.86;86.28
15794;BME280;7999;51.208;4.244;2022-08-21T05:54:45;101731.56;;;15.05;85.18
15794;BME280;7999;51.208;4.244;2022-08-21T05:57:13;101729.78;;;15.17;85.28
15794;BME280;7999;51.208;4.244;2022-08-21T05:59:41;101733.06;;;15.49;83.94
15794;BME280;7999;51.208;4.244;2022-08-21T06:02:07;101732.72;;;16.01;81.80
15794;BME280;7999;51.208;4.244;2022-08-21T06:04:35;101733.38;;;16.26;80.52
15794;BME280;7999;51.208;4.244;2022-08-21T06:07:02;101733.97;;;16.54;79.63
15794;BME280;7999;51.208;4.244;2022-08-21T06:09:29;101741.84;;;17.29;76.25
15794;BME280;7999;51.208;4.244;2022-08-21T06:11:55;101739.25;;;17.27;76.56
15794;BME280;7999;51.208;4.244;2022-08-21T06:14:24;101739.47;;;17.74;75.27
15794;BME280;7999;51.208;4.244;2022-08-21T06:16:50;101741.78;;;17.94;73.62
15794;BME280;7999;51.208;4.244;2022-08-21T06:19:17;101740.56;;;18.14;73.21
15794;BME280;7999;51.208;4.244;2022-08-21T06:21:44;101737.56;;;18.36;72.71
15794;BME280;7999;51.208;4.244;2022-08-21T06:24:11;101729.69;;;18.33;72.16
15794;BME280;7999;51.208;4.244;2022-08-21T06:26:37;101722.78;;;18.75;71.18
15794;BME280;7999;51.208;4.244;2022-08-21T06:29:04;101725.84;;;18.52;71.90
15794;BME280;7999;51.208;4.244;2022-08-21T06:31:32;101723.47;;;18.84;70.97
15794;BME280;7999;51.208;4.244;2022-08-21T06:33:59;101719.66;;;19.38;69.14
15794;BME280;7999;51.208;4.244;2022-08-21T06:36:26;101729.75;;;19.59;68.50
15794;BME280;7999;51.208;4.244;2022-08-21T06:38:52;101731.31;;;19.68;67.94
15794;BME280;7999;51.208;4.244;2022-08-21T06:41:19;101725.19;;;20.03;66.32
15794;BME280;7999;51.208;4.244;2022-08-21T06:43:47;101729.88;;;19.90;66.11
15794;BME280;7999;51.208;4.244;2022-08-21T06:46:13;101724.13;;;20.44;65.67
15794;BME280;7999;51.208;4.244;2022-08-21T06:48:41;101723.22;;;20.45;64.95
15794;BME280;7999;51.208;4.244;2022-08-21T06:51:08;101722.88;;;20.57;64.82
15794;BME280;7999;51.208;4.244;2022-08-21T06:53:35;101721.22;;;20.53;64.67
15794;BME280;7999;51.208;4.244;2022-08-21T06:56:02;101727.31;;;21.17;63.09
15794;BME280;7999;51.208;4.244;2022-08-21T06:58:29;101731.28;;;20.72;63.45
15794;BME280;7999;51.208;4.244;2022-08-21T07:00:56;101729.22;;;20.83;64.55
15794;BME280;7999;51.208;4.244;2022-08-21T07:03:24;101727.50;;;20.80;63.78
15794;BME280;7999;51.208;4.244;2022-08-21T07:05:52;101732.41;;;21.53;62.99
15794;BME280;7999;51.208;4.244;2022-08-21T07:08:20;101731.41;;;21.83;60.99
15794;BME280;7999;51.208;4.244;2022-08-21T07:10:47;101725.91;;;21.89;61.29
15794;BME280;7999;51.208;4.244;2022-08-21T07:13:15;101731.22;;;22.16;59.60
15794;BME280;7999;51.208;4.244;2022-08-21T07:15:42;101722.13;;;22.49;58.92
15794;BME280;7999;51.208;4.244;2022-08-21T07:18:10;101721.13;;;22.27;60.07
15794;BME280;7999;51.208;4.244;2022-08-21T07:20:38;101724.69;;;22.76;57.60
15794;BME280;7999;51.208;4.244;2022-08-21T07:23:08;101725.88;;;22.67;57.52
15794;BME280;7999;51.208;4.244;2022-08-21T07:25:38;101728.13;;;21.19;61.52
15794;BME280;7999;51.208;4.244;2022-08-21T07:28:07;101728.84;;;21.26;62.83
15794;BME280;7999;51.208;4.244;2022-08-21T07:30:33;101730.38;;;21.87;60.37
15794;BME280;7999;51.208;4.244;2022-08-21T07:33:00;101728.56;;;22.16;59.99
15794;BME280;7999;51.208;4.244;2022-08-21T07:35:27;101726.75;;;21.92;59.70
15794;BME280;7999;51.208;4.244;2022-08-21T07:37:56;101724.38;;;22.85;58.11
15794;BME280;7999;51.208;4.244;2022-08-21T07:40:24;101724.69;;;23.23;56.47
15794;BME280;7999;51.208;4.244;2022-08-21T07:42:51;101722.28;;;22.93;57.32
15794;BME280;7999;51.208;4.244;2022-08-21T07:45:19;101731.84;;;21.98;59.26
15794;BME280;7999;51.208;4.244;2022-08-21T07:47:46;101727.16;;;22.80;58.49
15794;BME280;7999;51.208;4.244;2022-08-21T07:50:13;101735.47;;;23.18;57.40
15794;BME280;7999;51.208;4.244;2022-08-21T07:52:41;101739.34;;;23.55;56.56
15794;BME280;7999;51.208;4.244;2022-08-21T07:55:08;101734.88;;;24.21;55.42
15794;BME280;7999;51.208;4.244;2022-08-21T07:57:37;101726.88;;;24.61;53.84
15794;BME280;7999;51.208;4.244;2022-08-21T08:00:04;101721.56;;;24.43;53.28
15794;BME280;7999;51.208;4.244;2022-08-21T08:02:37;101729.25;;;23.86;54.54
15794;BME280;7999;51.208;4.244;2022-08-21T08:05:06;101721.50;;;24.02;54.96
15794;BME280;7999;51.208;4.244;2022-08-21T08:07:33;101723.25;;;24.23;53.38
15794;BME280;7999;51.208;4.244;2022-08-21T08:10:04;101719.78;;;25.20;51.49
15794;BME280;7999;51.208;4.244;2022-08-21T08:12:32;101720.59;;;25.22;51.40
15794;BME280;7999;51.208;4.244;2022-08-21T08:15:01;101723.97;;;25.07;51.52
15794;BME280;7999;51.208;4.244;2022-08-21T08:17:28;101722.06;;;25.46;50.50
15794;BME280;7999;51.208;4.244;2022-08-21T08:19:57;101718.16;;;24.78;51.69
15794;BME280;7999;51.208;4.244;2022-08-21T08:22:25;101724.53;;;24.94;51.48
15794;BME280;7999;51.208;4.244;2022-08-21T08:24:52;101718.16;;;24.78;52.37
15794;BME280;7999;51.208;4.244;2022-08-21T08:27:19;101713.13;;;24.72;52.49
15794;BME280;7999;51.208;4.244;2022-08-21T08:29:46;101715.47;;;24.59;53.02
15794;BME280;7999;51.208;4.244;2022-08-21T08:32:14;101702.22;;;24.97;51.74
15794;BME280;7999;51.208;4.244;2022-08-21T08:34:41;101706.00;;;24.91;51.67
15794;BME280;7999;51.208;4.244;2022-08-21T08:37:08;101705.97;;;26.03;49.01
15794;BME280;7999;51.208;4.244;2022-08-21T08:39:36;101697.16;;;26.86;47.00
15794;BME280;7999;51.208;4.244;2022-08-21T08:42:05;101697.88;;;26.22;48.26
15794;BME280;7999;51.208;4.244;2022-08-21T08:44:33;101697.63;;;27.09;45.81
15794;BME280;7999;51.208;4.244;2022-08-21T08:47:00;101709.44;;;27.21;45.26
15794;BME280;7999;51.208;4.244;2022-08-21T08:49:31;101706.25;;;26.82;46.15
15794;BME280;7999;51.208;4.244;2022-08-21T08:52:01;101702.88;;;26.62;46.41
15794;BME280;7999;51.208;4.244;2022-08-21T08:54:29;101710.13;;;26.08;47.53
15794;BME280;7999;51.208;4.244;2022-08-21T08:56:58;101706.53;;;26.09;47.46
15794;BME280;7999;51.208;4.244;2022-08-21T08:59:26;101702.28;;;25.52;48.81
15794;BME280;7999;51.208;4.244;2022-08-21T09:01:53;101708.53;;;25.87;48.14
15794;BME280;7999;51.208;4.244;2022-08-21T09:04:21;101700.44;;;24.98;49.50
15794;BME280;7999;51.208;4.244;2022-08-21T09:06:53;101700.09;;;25.05;49.53
15794;BME280;7999;51.208;4.244;2022-08-21T09:09:25;101704.81;;;25.17;48.30
15794;BME280;7999;51.208;4.244;2022-08-21T09:11:56;101700.03;;;25.62;47.97
15794;BME280;7999;51.208;4.244;2022-08-21T09:14:27;101702.59;;;25.82;47.86
15794;BME280;7999;51.208;4.244;2022-08-21T09:17:02;101705.41;;;25.60;48.23
15794;BME280;7999;51.208;4.244;2022-08-21T09:19:41;101707.22;;;25.78;47.40
15794;BME280;7999;51.208;4.244;2022-08-21T09:22:15;101708.25;;;25.76;47.83
15794;BME280;7999;51.208;4.244;2022-08-21T09:24:46;101700.56;;;25.87;45.81
15794;BME280;7999;51.208;4.244;2022-08-21T09:27:16;101698.06;;;25.29;47.58
15794;BME280;7999;51.208;4.244;2022-08-21T09:29:45;101695.34;;;25.12;48.49
15794;BME280;7999;51.208;4.244;2022-08-21T09:32:15;101688.69;;;24.83;49.16
15794;BME280;7999;51.208;4.244;2022-08-21T09:34:55;101690.47;;;24.02;51.33
15794;BME280;7999;51.208;4.244;2022-08-21T09:37:23;101694.63;;;23.67;51.68
15794;BME280;7999;51.208;4.244;2022-08-21T09:39:50;101690.66;;;24.59;49.35
15794;BME280;7999;51.208;4.244;2022-08-21T09:42:21;101697.53;;;23.61;52.40
15794;BME280;7999;51.208;4.244;2022-08-21T09:45:00;101698.59;;;23.57;52.27
15794;BME280;7999;51.208;4.244;2022-08-21T09:47:30;101683.00;;;23.48;52.32
15794;BME280;7999;51.208;4.244;2022-08-21T09:50:06;101689.06;;;23.30;52.82
15794;BME280;7999;51.208;4.244;2022-08-21T09:55:01;101684.78;;;22.56;55.13
15794;BME280;7999;51.208;4.244;2022-08-21T09:57:48;101687.34;;;23.29;53.73
15794;BME280;7999;51.208;4.244;2022-08-21T10:00:16;101693.00;;;23.85;51.98
15794;BME280;7999;51.208;4.244;2022-08-21T10:02:45;101690.81;;;24.35;51.27
15794;BME280;7999;51.208;4.244;2022-08-21T10:05:16;101688.63;;;24.25;50.36
15794;BME280;7999;51.208;4.244;2022-08-21T10:07:43;101681.53;;;24.64;49.68
15794;BME280;7999;51.208;4.244;2022-08-21T10:10:15;101681.78;;;25.35;48.15
15794;BME280;7999;51.208;4.244;2022-08-21T10:12:44;101681.09;;;24.94;48.75
15794;BME280;7999;51.208;4.244;2022-08-21T10:15:17;101674.03;;;24.35;50.48
15794;BME280;7999;51.208;4.244;2022-08-21T10:17:48;101671.91;;;24.62;49.56
15794;BME280;7999;51.208;4.244;2022-08-21T10:20:20;101677.25;;;24.01;51.73
15794;BME280;7999;51.208;4.244;2022-08-21T10:22:54;101662.34;;;24.58;50.46
15794;BME280;7999;51.208;4.244;2022-08-21T10:25:30;101675.44;;;24.62;51.03
15794;BME280;7999;51.208;4.244;2022-08-21T10:27:59;101675.66;;;23.97;51.45
15794;BME280;7999;51.208;4.244;2022-08-21T10:30:30;101676.50;;;23.77;51.96
15794;BME280;7999;51.208;4.244;2022-08-21T10:33:04;101669.66;;;24.73;50.37
15794;BME280;7999;51.208;4.244;2022-08-21T10:35:39;101665.47;;;25.79;48.20
15794;BME280;7999;51.208;4.244;2022-08-21T10:40:58;101662.47;;;26.37;43.74
15794;BME280;7999;51.208;4.244;2022-08-21T10:43:29;101658.47;;;25.94;46.40
15794;BME280;7999;51.208;4.244;2022-08-21T10:46:01;101668.22;;;26.28;45.26
15794;BME280;7999;51.208;4.244;2022-08-21T10:48:32;101670.47;;;26.02;45.69
15794;BME280;7999;51.208;4.244;2022-08-21T10:51:04;101665.06;;;24.95;47.60
15794;BME280;7999;51.208;4.244;2022-08-21T10:53:39;101667.00;;;25.11;47.76
15794;BME280;7999;51.208;4.244;2022-08-21T10:56:11;101667.44;;;24.03;50.23
15794;BME280;7999;51.208;4.244;2022-08-21T10:58:40;101670.50;;;24.92;48.95
15794;BME280;7999;51.208;4.244;2022-08-21T11:01:10;101664.72;;;25.39;47.32
15794;BME280;7999;51.208;4.244;2022-08-21T11:03:39;101671.28;;;25.51;47.16
15794;BME280;7999;51.208;4.244;2022-08-21T11:06:11;101660.09;;;26.13;45.44
15794;BME280;7999;51.208;4.244;2022-08-21T11:08:43;101658.38;;;26.12;45.70
15794;BME280;7999;51.208;4.244;2022-08-21T11:11:12;101671.34;;;25.49;47.66
15794;BME280;7999;51.208;4.244;2022-08-21T11:13:42;101664.97;;;25.16;47.62
15794;BME280;7999;51.208;4.244;2022-08-21T11:16:14;101665.84;;;24.98;48.26
15794;BME280;7999;51.208;4.244;2022-08-21T11:18:43;101665.44;;;23.88;50.68
15794;BME280;7999;51.208;4.244;2022-08-21T11:21:26;101660.22;;;24.66;49.02
15794;BME280;7999;51.208;4.244;2022-08-21T11:23:55;101653.88;;;24.50;49.14
15794;BME280;7999;51.208;4.244;2022-08-21T11:26:31;101661.72;;;24.90;46.88
15794;BME280;7999;51.208;4.244;2022-08-21T11:29:00;101653.31;;;25.37;47.58
15794;BME280;7999;51.208;4.244;2022-08-21T11:31:36;101658.88;;;25.14;47.47
15794;BME280;7999;51.208;4.244;2022-08-21T11:34:10;101650.19;;;25.82;45.62
15794;BME280;7999;51.208;4.244;2022-08-21T11:36:42;101655.84;;;27.08;43.65
15794;BME280;7999;51.208;4.244;2022-08-21T11:39:25;101655.72;;;27.57;41.62
15794;BME280;7999;51.208;4.244;2022-08-21T11:41:59;101655.59;;;27.45;41.35
15794;BME280;7999;51.208;4.244;2022-08-21T11:44:31;101650.47;;;27.56;40.76
15794;BME280;7999;51.208;4.244;2022-08-21T11:47:04;101651.00;;;26.17;42.64
15794;BME280;7999;51.208;4.244;2022-08-21T11:49:40;101651.69;;;26.71;42.82
15794;BME280;7999;51.208;4.244;2022-08-21T11:52:11;101638.78;;;26.13;42.38
15794;BME280;7999;51.208;4.244;2022-08-21T11:54:41;101644.53;;;25.88;44.02
15794;BME280;7999;51.208;4.244;2022-08-21T11:57:14;101645.53;;;24.57;46.57
15794;BME280;7999;51.208;4.244;2022-08-21T11:59:45;101641.31;;;25.29;45.08
15794;BME280;7999;51.208;4.244;2022-08-21T12:02:15;101650.25;;;25.09;45.63
15794;BME280;7999;51.208;4.244;2022-08-21T12:04:43;101649.59;;;25.22;44.98
15794;BME280;7999;51.208;4.244;2022-08-21T12:07:11;101649.00;;;24.59;46.89
15794;BME280;7999;51.208;4.244;2022-08-21T12:09:39;101643.34;;;23.87;47.87
15794;BME280;7999;51.208;4.244;2022-08-21T12:12:07;101642.53;;;24.84;46.25
15794;BME280;7999;51.208;4.244;2022-08-21T12:14:39;101646.63;;;24.91;45.89
15794;BME280;7999;51.208;4.244;2022-08-21T12:17:07;101649.44;;;24.69;46.96
15794;BME280;7999;51.208;4.244;2022-08-21T12:19:35;101650.41;;;25.06;46.47
15794;BME280;7999;51.208;4.244;2022-08-21T12:22:09;101651.97;;;25.10;45.87
15794;BME280;7999;51.208;4.244;2022-08-21T12:24:38;101654.53;;;25.30;44.92
15794;BME280;7999;51.208;4.244;2022-08-21T12:27:13;101654.50;;;25.13;45.66
15794;BME280;7999;51.208;4.244;2022-08-21T12:29:49;101653.22;;;25.75;44.85
15794;BME280;7999;51.208;4.244;2022-08-21T12:32:23;101648.47;;;25.63;44.54
15794;BME280;7999;51.208;4.244;2022-08-21T12:34:51;101659.97;;;25.10;46.08
15794;BME280;7999;51.208;4.244;2022-08-21T12:37:21;101660.41;;;24.22;47.22
15794;BME280;7999;51.208;4.244;2022-08-21T12:39:50;101659.47;;;24.03;48.45
15794;BME280;7999;51.208;4.244;2022-08-21T12:42:19;101652.03;;;24.31;47.55
15794;BME280;7999;51.208;4.244;2022-08-21T12:44:50;101654.56;;;24.34;46.38
15794;BME280;7999;51.208;4.244;2022-08-21T12:47:22;101652.81;;;24.54;46.12
15794;BME280;7999;51.208;4.244;2022-08-21T12:49:52;101652.59;;;24.58;46.04
15794;BME280;7999;51.208;4.244;2022-08-21T12:52:23;101651.75;;;24.95;46.96
15794;BME280;7999;51.208;4.244;2022-08-21T12:54:50;101652.47;;;24.80;46.68
15794;BME280;7999;51.208;4.244;2022-08-21T12:57:19;101643.06;;;24.34;46.82
15794;BME280;7999;51.208;4.244;2022-08-21T12:59:51;101654.34;;;24.78;46.25
15794;BME280;7999;51.208;4.244;2022-08-21T13:02:19;101651.03;;;25.11;44.78
15794;BME280;7999;51.208;4.244;2022-08-21T13:04:48;101649.16;;;25.13;44.63
15794;BME280;7999;51.208;4.244;2022-08-21T13:07:19;101646.81;;;25.79;44.59
15794;BME280;7999;51.208;4.244;2022-08-21T13:09:51;101643.50;;;25.74;42.57
15794;BME280;7999;51.208;4.244;2022-08-21T13:12:20;101650.41;;;25.95;42.79